Preview of NWS' New Version of Forecast
This preview is not operational and should not be used for support decisions.

Terminal Aerodrome Forecast (TAF)

Issued by National Weather Service (NWS)

                            
000
FTUS46 KMTR 191720
TAFSTS
TAF
KSTS 191720Z 1918/2018 VRB03KT P6SM SKC
     FM192100 24009KT P6SM FEW035
     FM200300 VRB03KT P6SM SKC
      TEMPO 2011/2015 3SM BR=